CCA708 VVNB-ZSHC
Flight info
| Callsign | CCA708 |
|---|---|
| Flight time | 2h 25m |
| Altitude | 35100 |
| Route | NAKHA3A NAKHA R474 GYA A599 POU G471 SHL/K0826S1130 G471 EGEDA/K0841S1100 G471 PLT/K0819S1130 A599 ELNEX ELNEX91 |
| Aircraft | A320/M-SDE3FGHIRWY/LB1 |
Departure
| Time | 2026-05-08 13:41 |
|---|---|
| Airport | Noi Bai International Airport (VVNB) |
Arrival
| Time | 2026-05-08 16:06 |
|---|---|
| Airport | Hangzhou Xiaoshan International Airport (ZSHC) |
| Time | Latitude | Longitude | Altitude | Speed | Heading |
|---|---|---|---|---|---|
| 2026-05-08 13:04 | 21.22002 | 105.78943 | 47 ft | 0 kts | 197° |
| 2026-05-08 13:31 | 21.22015 | 105.78947 | 47 ft | 4 kts | 198° |
| 2026-05-08 13:32 | 21.22041 | 105.78956 | 46 ft | 4 kts | 202° |
| 2026-05-08 13:32 | 21.22066 | 105.78968 | 44 ft | 4 kts | 208° |
| 2026-05-08 13:32 | 21.22088 | 105.78984 | 44 ft | 4 kts | 229° |
| 2026-05-08 13:32 | 21.22097 | 105.79004 | 46 ft | 2 kts | 286° |
| 2026-05-08 13:33 | 21.22095 | 105.79010 | 47 ft | 0 kts | 287° |
| 2026-05-08 13:37 | 21.22098 | 105.79002 | 46 ft | 2 kts | 287° |
| 2026-05-08 13:37 | 21.22115 | 105.78940 | 49 ft | 15 kts | 287° |
| 2026-05-08 13:37 | 21.22148 | 105.78827 | 49 ft | 17 kts | 287° |
| 2026-05-08 13:38 | 21.22213 | 105.78749 | 49 ft | 15 kts | 9° |
| 2026-05-08 13:38 | 21.22281 | 105.78692 | 49 ft | 15 kts | 288° |
| 2026-05-08 13:38 | 21.22341 | 105.78608 | 50 ft | 16 kts | 356° |
| 2026-05-08 13:38 | 21.22442 | 105.78653 | 46 ft | 16 kts | 44° |
| 2026-05-08 13:39 | 21.22444 | 105.78724 | 50 ft | 1 kts | 108° |
| 2026-05-08 13:39 | 21.22444 | 105.78725 | 50 ft | 0 kts | 108° |
| 2026-05-08 13:39 | 21.22444 | 105.78726 | 50 ft | 0 kts | 108° |
| 2026-05-08 13:40 | 21.22441 | 105.78734 | 50 ft | 7 kts | 108° |
| 2026-05-08 13:40 | 21.22355 | 105.79034 | 52 ft | 75 kts | 107° |
| 2026-05-08 13:40 | 21.22144 | 105.79759 | 47 ft | 126 kts | 107° |
| 2026-05-08 13:41 | 21.21849 | 105.80793 | 49 ft | 163 kts | 107° |
| 2026-05-08 13:41 | 21.21483 | 105.82029 | 328 ft | 178 kts | 105° |
| 2026-05-08 13:41 | 21.21115 | 105.83304 | 895 ft | 179 kts | 106° |
| 2026-05-08 13:41 | 21.20767 | 105.84592 | 1391 ft | 186 kts | 104° |
| 2026-05-08 13:42 | 21.20390 | 105.86010 | 1652 ft | 210 kts | 104° |
| 2026-05-08 13:42 | 21.19965 | 105.87598 | 2048 ft | 234 kts | 104° |
| 2026-05-08 13:42 | 21.19493 | 105.89336 | 2626 ft | 249 kts | 104° |
| 2026-05-08 13:42 | 21.18997 | 105.91131 | 3485 ft | 253 kts | 104° |
| 2026-05-08 13:43 | 21.18488 | 105.92954 | 4281 ft | 257 kts | 104° |
| 2026-05-08 13:43 | 21.17971 | 105.94810 | 5027 ft | 263 kts | 105° |
| 2026-05-08 13:43 | 21.17615 | 105.96743 | 5730 ft | 268 kts | 90° |
| 2026-05-08 13:43 | 21.17935 | 105.98712 | 6444 ft | 272 kts | 68° |
| 2026-05-08 13:44 | 21.18959 | 106.00436 | 7066 ft | 279 kts | 45° |
| 2026-05-08 13:44 | 21.20548 | 106.01652 | 7716 ft | 284 kts | 30° |
| 2026-05-08 13:44 | 21.22279 | 106.02717 | 8393 ft | 289 kts | 30° |
| 2026-05-08 13:44 | 21.24037 | 106.03799 | 9058 ft | 294 kts | 30° |
| 2026-05-08 13:45 | 21.25821 | 106.04904 | 9729 ft | 299 kts | 30° |
| 2026-05-08 13:45 | 21.27638 | 106.06033 | 10232 ft | 308 kts | 30° |
| 2026-05-08 13:45 | 21.29559 | 106.07229 | 10360 ft | 330 kts | 30° |
| 2026-05-08 13:45 | 21.31600 | 106.08499 | 10607 ft | 345 kts | 30° |
| 2026-05-08 13:46 | 21.33698 | 106.09806 | 11106 ft | 351 kts | 30° |
| 2026-05-08 13:46 | 21.35818 | 106.11128 | 11661 ft | 354 kts | 30° |
| 2026-05-08 13:46 | 21.37955 | 106.12463 | 12223 ft | 357 kts | 30° |
| 2026-05-08 13:46 | 21.40110 | 106.13810 | 12778 ft | 360 kts | 30° |
| 2026-05-08 13:47 | 21.42287 | 106.15172 | 13340 ft | 363 kts | 30° |
| 2026-05-08 13:47 | 21.44476 | 106.16542 | 13867 ft | 366 kts | 30° |
| 2026-05-08 13:47 | 21.46657 | 106.17906 | 14335 ft | 369 kts | 30° |
| 2026-05-08 13:47 | 21.48881 | 106.19296 | 14821 ft | 371 kts | 30° |
| 2026-05-08 13:48 | 21.51142 | 106.20713 | 15310 ft | 373 kts | 30° |
| 2026-05-08 13:48 | 21.53361 | 106.22105 | 15794 ft | 375 kts | 30° |
| 2026-05-08 13:48 | 21.55620 | 106.23522 | 16263 ft | 377 kts | 30° |
| 2026-05-08 13:48 | 21.57894 | 106.24947 | 16756 ft | 379 kts | 30° |
| 2026-05-08 13:49 | 21.60177 | 106.26377 | 17240 ft | 381 kts | 30° |
| 2026-05-08 13:49 | 21.62477 | 106.27817 | 17726 ft | 383 kts | 31° |
| 2026-05-08 13:49 | 21.64786 | 106.29262 | 18210 ft | 386 kts | 30° |
| 2026-05-08 13:49 | 21.67116 | 106.30721 | 18596 ft | 389 kts | 31° |
| 2026-05-08 13:50 | 21.69496 | 106.32212 | 18969 ft | 393 kts | 30° |
| 2026-05-08 13:50 | 21.71835 | 106.33680 | 19342 ft | 396 kts | 30° |
| 2026-05-08 13:50 | 21.74223 | 106.35183 | 19738 ft | 399 kts | 31° |
| 2026-05-08 13:50 | 21.76656 | 106.36716 | 20145 ft | 402 kts | 31° |
| 2026-05-08 13:51 | 21.79049 | 106.38225 | 20533 ft | 405 kts | 30° |
| 2026-05-08 13:51 | 21.81527 | 106.39786 | 20925 ft | 409 kts | 30° |
| 2026-05-08 13:51 | 21.83957 | 106.41316 | 21308 ft | 412 kts | 30° |
| 2026-05-08 13:51 | 21.86439 | 106.42880 | 21688 ft | 415 kts | 30° |
| 2026-05-08 13:52 | 21.88941 | 106.44456 | 22106 ft | 417 kts | 30° |
| 2026-05-08 13:52 | 21.91457 | 106.46042 | 22502 ft | 420 kts | 30° |
| 2026-05-08 13:52 | 21.93989 | 106.47638 | 22891 ft | 423 kts | 30° |
| 2026-05-08 13:52 | 21.96519 | 106.49285 | 23208 ft | 428 kts | 34° |
| 2026-05-08 13:53 | 21.98881 | 106.51261 | 23552 ft | 432 kts | 39° |
| 2026-05-08 13:53 | 22.01224 | 106.53309 | 23854 ft | 435 kts | 38° |
| 2026-05-08 13:53 | 22.03580 | 106.55359 | 24155 ft | 437 kts | 38° |
| 2026-05-08 13:53 | 22.05953 | 106.57421 | 24464 ft | 439 kts | 38° |
| 2026-05-08 13:54 | 22.08340 | 106.59496 | 24752 ft | 442 kts | 38° |
| 2026-05-08 13:54 | 22.10734 | 106.61580 | 25047 ft | 444 kts | 38° |
| 2026-05-08 13:54 | 22.13142 | 106.63680 | 25337 ft | 446 kts | 38° |
| 2026-05-08 13:54 | 22.15561 | 106.65792 | 25622 ft | 448 kts | 38° |
| 2026-05-08 13:55 | 22.17947 | 106.67962 | 25901 ft | 451 kts | 43° |
| 2026-05-08 13:55 | 22.20192 | 106.70344 | 26174 ft | 453 kts | 44° |
| 2026-05-08 13:55 | 22.24701 | 106.75143 | 26730 ft | 458 kts | 43° |
| 2026-05-08 13:56 | 22.26972 | 106.77559 | 26974 ft | 460 kts | 43° |
| 2026-05-08 13:56 | 22.29258 | 106.79990 | 27227 ft | 462 kts | 43° |
| 2026-05-08 13:56 | 22.31552 | 106.82432 | 27483 ft | 465 kts | 44° |
| 2026-05-08 13:56 | 22.33643 | 106.85106 | 27733 ft | 468 kts | 54° |
| 2026-05-08 13:57 | 22.35292 | 106.88155 | 27970 ft | 472 kts | 65° |
| 2026-05-08 13:57 | 22.36440 | 106.91475 | 28211 ft | 474 kts | 75° |
| 2026-05-08 13:57 | 22.37135 | 106.94965 | 28448 ft | 476 kts | 79° |
| 2026-05-08 13:57 | 22.37764 | 106.98486 | 28697 ft | 479 kts | 79° |
| 2026-05-08 13:58 | 22.38402 | 107.02025 | 28934 ft | 481 kts | 79° |
| 2026-05-08 13:58 | 22.39046 | 107.05582 | 29188 ft | 483 kts | 79° |
| 2026-05-08 13:58 | 22.39695 | 107.09147 | 29464 ft | 485 kts | 79° |
| 2026-05-08 13:58 | 22.40345 | 107.12723 | 29744 ft | 486 kts | 79° |
| 2026-05-08 13:59 | 22.40994 | 107.16308 | 30114 ft | 485 kts | 79° |
| 2026-05-08 13:59 | 22.41638 | 107.19885 | 30419 ft | 485 kts | 79° |
| 2026-05-08 13:59 | 22.42279 | 107.23466 | 30720 ft | 485 kts | 79° |
| 2026-05-08 13:59 | 22.42914 | 107.27043 | 31019 ft | 485 kts | 79° |
| 2026-05-08 14:00 | 22.43560 | 107.30673 | 31317 ft | 485 kts | 79° |
| 2026-05-08 14:00 | 22.44196 | 107.34206 | 31601 ft | 486 kts | 79° |
| 2026-05-08 14:00 | 22.44846 | 107.37788 | 31903 ft | 486 kts | 78° |
| 2026-05-08 14:00 | 22.45496 | 107.41371 | 32206 ft | 486 kts | 78° |
| 2026-05-08 14:01 | 22.46148 | 107.44960 | 32517 ft | 486 kts | 78° |
| 2026-05-08 14:01 | 22.46798 | 107.48552 | 32778 ft | 488 kts | 78° |
| 2026-05-08 14:01 | 22.47456 | 107.52197 | 33079 ft | 488 kts | 78° |
| 2026-05-08 14:01 | 22.48098 | 107.55753 | 33371 ft | 488 kts | 78° |
| 2026-05-08 14:02 | 22.48746 | 107.59360 | 33668 ft | 488 kts | 78° |
| 2026-05-08 14:02 | 22.49391 | 107.62965 | 33960 ft | 489 kts | 78° |
| 2026-05-08 14:02 | 22.50035 | 107.66574 | 34219 ft | 488 kts | 78° |
| 2026-05-08 14:02 | 22.50676 | 107.70176 | 34479 ft | 488 kts | 78° |
| 2026-05-08 14:03 | 22.51316 | 107.73779 | 34737 ft | 487 kts | 78° |
| 2026-05-08 14:03 | 22.51954 | 107.77375 | 34993 ft | 487 kts | 78° |
| 2026-05-08 14:03 | 22.52591 | 107.80976 | 35105 ft | 488 kts | 78° |
| 2026-05-08 14:04 | 22.53877 | 107.88224 | 35129 ft | 492 kts | 78° |
| 2026-05-08 14:04 | 22.55176 | 107.95537 | 35129 ft | 492 kts | 78° |
| 2026-05-08 14:05 | 22.56462 | 108.02810 | 35130 ft | 492 kts | 78° |
| 2026-05-08 14:05 | 22.57727 | 108.10032 | 35130 ft | 492 kts | 78° |
| 2026-05-08 14:06 | 22.58958 | 108.17323 | 35131 ft | 493 kts | 80° |
| 2026-05-08 14:06 | 22.59861 | 108.24677 | 35136 ft | 493 kts | 83° |
| 2026-05-08 14:07 | 22.60585 | 108.32057 | 35142 ft | 493 kts | 83° |
| 2026-05-08 14:07 | 22.61363 | 108.39432 | 35144 ft | 493 kts | 82° |
| 2026-05-08 14:08 | 22.62213 | 108.46803 | 35145 ft | 493 kts | 82° |
| 2026-05-08 14:08 | 22.63068 | 108.54167 | 35136 ft | 493 kts | 82° |
| 2026-05-08 14:09 | 22.63900 | 108.61535 | 35155 ft | 493 kts | 82° |
| 2026-05-08 14:09 | 22.64721 | 108.68916 | 35141 ft | 494 kts | 82° |
| 2026-05-08 14:10 | 22.65409 | 108.75109 | 35140 ft | 495 kts | 82° |
| 2026-05-08 14:10 | 22.66362 | 108.83706 | 35138 ft | 495 kts | 82° |
| 2026-05-08 14:11 | 22.67055 | 108.89908 | 35140 ft | 495 kts | 82° |
| 2026-05-08 14:11 | 22.68008 | 108.98519 | 35142 ft | 496 kts | 82° |
| 2026-05-08 14:12 | 22.68689 | 109.04727 | 35142 ft | 496 kts | 82° |
| 2026-05-08 14:12 | 22.69495 | 109.12143 | 35143 ft | 496 kts | 82° |
| 2026-05-08 14:13 | 22.70312 | 109.19549 | 35149 ft | 496 kts | 82° |
| 2026-05-08 14:13 | 22.71156 | 109.26959 | 35150 ft | 495 kts | 82° |
| 2026-05-08 14:14 | 22.72010 | 109.34362 | 35150 ft | 495 kts | 82° |
| 2026-05-08 14:14 | 22.72857 | 109.41760 | 35149 ft | 495 kts | 82° |
| 2026-05-08 14:15 | 22.73703 | 109.49164 | 35149 ft | 495 kts | 82° |
| 2026-05-08 14:15 | 22.74557 | 109.56570 | 35152 ft | 495 kts | 82° |
| 2026-05-08 14:16 | 22.75409 | 109.63979 | 35151 ft | 496 kts | 82° |
| 2026-05-08 14:16 | 22.76248 | 109.71387 | 35154 ft | 496 kts | 82° |
| 2026-05-08 14:17 | 22.77080 | 109.78801 | 35155 ft | 496 kts | 82° |
| 2026-05-08 14:17 | 22.77920 | 109.86222 | 35152 ft | 496 kts | 81° |
| 2026-05-08 14:18 | 22.78756 | 109.93637 | 35159 ft | 496 kts | 82° |
| 2026-05-08 14:18 | 22.79582 | 110.01070 | 35148 ft | 497 kts | 82° |
| 2026-05-08 14:19 | 22.80412 | 110.08514 | 35145 ft | 498 kts | 82° |
| 2026-05-08 14:19 | 22.81241 | 110.15971 | 35148 ft | 498 kts | 82° |
| 2026-05-08 14:20 | 22.82062 | 110.23421 | 35153 ft | 498 kts | 82° |
| 2026-05-08 14:20 | 22.82874 | 110.30869 | 35155 ft | 498 kts | 82° |
| 2026-05-08 14:21 | 22.83692 | 110.38322 | 35156 ft | 498 kts | 82° |
| 2026-05-08 14:21 | 22.84494 | 110.45724 | 35154 ft | 498 kts | 82° |
| 2026-05-08 14:22 | 22.85306 | 110.53221 | 35157 ft | 497 kts | 81° |
| 2026-05-08 14:22 | 22.86128 | 110.60615 | 35160 ft | 497 kts | 81° |
| 2026-05-08 14:23 | 22.87020 | 110.68096 | 35163 ft | 497 kts | 81° |
| 2026-05-08 14:23 | 22.87915 | 110.75526 | 35162 ft | 497 kts | 81° |
| 2026-05-08 14:24 | 22.88785 | 110.82952 | 35164 ft | 496 kts | 81° |
| 2026-05-08 14:24 | 22.89640 | 110.90380 | 35168 ft | 496 kts | 81° |
| 2026-05-08 14:25 | 22.90489 | 110.97798 | 35168 ft | 496 kts | 81° |
| 2026-05-08 14:25 | 22.91345 | 111.05218 | 35167 ft | 495 kts | 81° |
| 2026-05-08 14:26 | 22.92197 | 111.12634 | 35177 ft | 496 kts | 81° |
| 2026-05-08 14:26 | 22.93043 | 111.20056 | 35160 ft | 496 kts | 81° |
| 2026-05-08 14:27 | 22.93890 | 111.27480 | 35159 ft | 496 kts | 81° |
| 2026-05-08 14:27 | 22.94729 | 111.34919 | 35158 ft | 497 kts | 81° |
| 2026-05-08 14:28 | 22.95567 | 111.42355 | 35153 ft | 497 kts | 81° |
| 2026-05-08 14:28 | 22.96404 | 111.49804 | 35157 ft | 498 kts | 81° |
| 2026-05-08 14:29 | 22.97238 | 111.57263 | 35155 ft | 497 kts | 81° |
| 2026-05-08 14:29 | 22.98056 | 111.64720 | 35158 ft | 498 kts | 81° |
| 2026-05-08 14:30 | 22.98866 | 111.72171 | 35161 ft | 497 kts | 81° |
| 2026-05-08 14:30 | 22.99682 | 111.79628 | 35167 ft | 498 kts | 81° |
| 2026-05-08 14:31 | 23.00488 | 111.87085 | 35159 ft | 497 kts | 81° |
| 2026-05-08 14:31 | 23.01294 | 111.94532 | 35159 ft | 497 kts | 81° |
| 2026-05-08 14:32 | 23.02481 | 112.05711 | 35157 ft | 497 kts | 82° |
| 2026-05-08 14:32 | 23.03273 | 112.13167 | 35158 ft | 497 kts | 81° |
| 2026-05-08 14:33 | 23.04060 | 112.20609 | 35155 ft | 497 kts | 81° |
| 2026-05-08 14:34 | 23.05672 | 112.35962 | 35149 ft | 497 kts | 81° |
| 2026-05-08 14:34 | 23.06457 | 112.43420 | 35139 ft | 498 kts | 81° |
| 2026-05-08 14:35 | 23.06859 | 112.50926 | 35142 ft | 500 kts | 93° |
| 2026-05-08 14:35 | 23.06337 | 112.58457 | 35141 ft | 501 kts | 93° |
| 2026-05-08 14:36 | 23.05916 | 112.64721 | 35129 ft | 501 kts | 93° |
| 2026-05-08 14:36 | 23.05409 | 112.72260 | 35131 ft | 500 kts | 93° |
| 2026-05-08 14:37 | 23.04898 | 112.79799 | 35133 ft | 501 kts | 93° |
| 2026-05-08 14:37 | 23.04380 | 112.87332 | 35133 ft | 501 kts | 93° |
| 2026-05-08 14:38 | 23.03854 | 112.94868 | 35134 ft | 501 kts | 93° |
| 2026-05-08 14:38 | 23.03326 | 113.02407 | 35131 ft | 501 kts | 93° |
| 2026-05-08 14:39 | 23.02809 | 113.09943 | 35133 ft | 501 kts | 93° |
| 2026-05-08 14:39 | 23.02296 | 113.17474 | 35128 ft | 500 kts | 90° |
| 2026-05-08 14:40 | 23.02804 | 113.24953 | 35126 ft | 496 kts | 80° |
| 2026-05-08 14:40 | 23.03620 | 113.32440 | 35126 ft | 497 kts | 81° |
| 2026-05-08 14:41 | 23.04414 | 113.39841 | 35124 ft | 497 kts | 81° |
| 2026-05-08 14:41 | 23.05201 | 113.47290 | 35128 ft | 497 kts | 81° |
| 2026-05-08 14:42 | 23.05988 | 113.54739 | 35130 ft | 496 kts | 80° |
| 2026-05-08 14:42 | 23.06776 | 113.62179 | 35128 ft | 496 kts | 80° |
| 2026-05-08 14:43 | 23.07563 | 113.69624 | 35130 ft | 496 kts | 81° |
| 2026-05-08 14:43 | 23.08376 | 113.77052 | 35129 ft | 494 kts | 76° |
| 2026-05-08 14:44 | 23.10590 | 113.83981 | 35124 ft | 481 kts | 56° |
| 2026-05-08 14:44 | 23.12408 | 113.86993 | 35144 ft | 474 kts | 45° |
| 2026-05-08 14:44 | 23.14617 | 113.89596 | 35136 ft | 466 kts | 36° |
| 2026-05-08 14:45 | 23.19634 | 113.93965 | 35121 ft | 462 kts | 32° |
| 2026-05-08 14:45 | 23.24687 | 113.98300 | 35119 ft | 463 kts | 32° |
| 2026-05-08 14:46 | 23.29737 | 114.02650 | 35119 ft | 463 kts | 32° |
| 2026-05-08 14:46 | 23.34802 | 114.06990 | 35128 ft | 463 kts | 32° |
| 2026-05-08 14:47 | 23.39887 | 114.11315 | 35139 ft | 464 kts | 32° |
| 2026-05-08 14:47 | 23.44959 | 114.15645 | 35145 ft | 464 kts | 32° |
| 2026-05-08 14:48 | 23.50032 | 114.19989 | 35146 ft | 464 kts | 32° |
| 2026-05-08 14:48 | 23.55100 | 114.24332 | 35158 ft | 463 kts | 32° |
| 2026-05-08 14:49 | 23.60161 | 114.28664 | 35154 ft | 463 kts | 32° |
| 2026-05-08 14:49 | 23.65226 | 114.32997 | 35163 ft | 463 kts | 31° |
| 2026-05-08 14:50 | 23.70340 | 114.37253 | 35157 ft | 462 kts | 30° |
| 2026-05-08 14:50 | 23.75499 | 114.41433 | 35153 ft | 461 kts | 30° |
| 2026-05-08 14:51 | 23.80653 | 114.45625 | 35156 ft | 462 kts | 30° |
| 2026-05-08 14:51 | 23.85802 | 114.49854 | 35165 ft | 463 kts | 31° |
| 2026-05-08 14:52 | 23.93514 | 114.56219 | 35178 ft | 464 kts | 30° |
| 2026-05-08 14:53 | 23.98669 | 114.60471 | 35175 ft | 465 kts | 30° |
| 2026-05-08 14:53 | 24.03834 | 114.64729 | 35177 ft | 465 kts | 30° |
| 2026-05-08 14:54 | 24.08997 | 114.68987 | 35178 ft | 465 kts | 30° |
| 2026-05-08 14:54 | 24.14162 | 114.73257 | 35195 ft | 465 kts | 30° |
| 2026-05-08 14:55 | 24.19329 | 114.77529 | 35186 ft | 466 kts | 30° |
| 2026-05-08 14:55 | 24.24514 | 114.81815 | 35185 ft | 467 kts | 30° |
| 2026-05-08 14:56 | 24.30061 | 114.85240 | 35191 ft | 450 kts | 12° |
| 2026-05-08 14:56 | 24.36052 | 114.86903 | 35194 ft | 443 kts | 5° |
| 2026-05-08 14:57 | 24.42068 | 114.88376 | 35205 ft | 444 kts | 5° |
| 2026-05-08 14:57 | 24.48094 | 114.89871 | 35208 ft | 445 kts | 5° |
| 2026-05-08 14:58 | 24.54126 | 114.91375 | 35203 ft | 445 kts | 5° |
| 2026-05-08 14:58 | 24.60167 | 114.92879 | 35206 ft | 445 kts | 5° |
| 2026-05-08 14:59 | 24.66167 | 114.94367 | 35205 ft | 445 kts | 5° |
| 2026-05-08 14:59 | 24.75239 | 114.96608 | 35212 ft | 446 kts | 5° |
| 2026-05-08 15:00 | 24.81287 | 114.98093 | 35219 ft | 446 kts | 4° |
| 2026-05-08 15:00 | 24.87348 | 114.99560 | 35220 ft | 446 kts | 4° |
| 2026-05-08 15:01 | 24.93409 | 115.01022 | 35222 ft | 446 kts | 5° |
| 2026-05-08 15:01 | 24.99468 | 115.02501 | 35222 ft | 446 kts | 5° |
| 2026-05-08 15:02 | 25.05534 | 115.03994 | 35225 ft | 447 kts | 5° |
| 2026-05-08 15:02 | 25.11606 | 115.05474 | 35219 ft | 447 kts | 5° |
| 2026-05-08 15:03 | 25.17674 | 115.06958 | 35219 ft | 447 kts | 5° |
| 2026-05-08 15:03 | 25.23748 | 115.08447 | 35235 ft | 447 kts | 4° |
| 2026-05-08 15:04 | 25.29828 | 115.09924 | 35228 ft | 445 kts | 1° |
| 2026-05-08 15:04 | 25.32865 | 115.10225 | 35226 ft | 434 kts | 351° |
| 2026-05-08 15:04 | 25.35832 | 115.09942 | 35223 ft | 423 kts | 342° |
| 2026-05-08 15:05 | 25.41270 | 115.07875 | 35217 ft | 409 kts | 328° |
| 2026-05-08 15:05 | 25.46438 | 115.05215 | 35219 ft | 410 kts | 328° |
| 2026-05-08 15:06 | 25.51620 | 115.02557 | 35239 ft | 411 kts | 328° |
| 2026-05-08 15:06 | 25.56805 | 114.99899 | 35239 ft | 411 kts | 328° |
| 2026-05-08 15:07 | 25.61955 | 114.97245 | 35238 ft | 411 kts | 328° |
| 2026-05-08 15:07 | 25.67133 | 114.94575 | 35237 ft | 411 kts | 328° |
| 2026-05-08 15:08 | 25.71473 | 114.92335 | 35239 ft | 410 kts | 328° |
| 2026-05-08 15:08 | 25.77821 | 114.90001 | 35231 ft | 431 kts | 350° |
| 2026-05-08 15:09 | 25.80856 | 114.90313 | 35228 ft | 448 kts | 7° |
| 2026-05-08 15:09 | 25.83790 | 114.91641 | 35245 ft | 467 kts | 24° |
| 2026-05-08 15:09 | 25.86345 | 114.93957 | 35235 ft | 483 kts | 39° |
| 2026-05-08 15:09 | 25.88650 | 114.96677 | 35223 ft | 484 kts | 40° |
| 2026-05-08 15:10 | 25.93248 | 115.02180 | 35200 ft | 486 kts | 40° |
| 2026-05-08 15:10 | 25.97854 | 115.07691 | 35206 ft | 487 kts | 40° |
| 2026-05-08 15:11 | 26.02482 | 115.13192 | 35217 ft | 487 kts | 40° |
| 2026-05-08 15:11 | 26.07112 | 115.18697 | 35218 ft | 488 kts | 40° |
| 2026-05-08 15:12 | 26.11744 | 115.24216 | 35227 ft | 488 kts | 40° |
| 2026-05-08 15:12 | 26.16374 | 115.29737 | 35223 ft | 488 kts | 40° |
| 2026-05-08 15:13 | 26.21004 | 115.35260 | 35232 ft | 488 kts | 40° |
| 2026-05-08 15:13 | 26.25629 | 115.40796 | 35234 ft | 488 kts | 40° |
| 2026-05-08 15:14 | 26.30246 | 115.46329 | 35252 ft | 488 kts | 40° |
| 2026-05-08 15:14 | 26.34871 | 115.51870 | 35239 ft | 488 kts | 40° |
| 2026-05-08 15:15 | 26.39493 | 115.57422 | 35243 ft | 489 kts | 40° |
| 2026-05-08 15:15 | 26.44114 | 115.62997 | 35238 ft | 489 kts | 40° |
| 2026-05-08 15:16 | 26.48738 | 115.68561 | 35241 ft | 489 kts | 40° |
| 2026-05-08 15:16 | 26.53360 | 115.74119 | 35257 ft | 489 kts | 40° |
| 2026-05-08 15:17 | 26.57985 | 115.79697 | 35243 ft | 489 kts | 40° |
| 2026-05-08 15:17 | 26.62603 | 115.85289 | 35240 ft | 489 kts | 40° |
| 2026-05-08 15:18 | 26.67220 | 115.90879 | 35242 ft | 490 kts | 40° |
| 2026-05-08 15:18 | 26.71814 | 115.96443 | 35239 ft | 490 kts | 40° |
| 2026-05-08 15:19 | 26.76435 | 116.02049 | 35257 ft | 490 kts | 40° |
| 2026-05-08 15:19 | 26.81064 | 116.07666 | 35247 ft | 491 kts | 40° |
| 2026-05-08 15:20 | 26.85694 | 116.13298 | 35248 ft | 492 kts | 40° |
| 2026-05-08 15:20 | 26.90314 | 116.18940 | 35247 ft | 491 kts | 40° |
| 2026-05-08 15:21 | 26.94157 | 116.23627 | 35248 ft | 491 kts | 40° |
| 2026-05-08 15:21 | 26.99606 | 116.30178 | 35259 ft | 492 kts | 39° |
| 2026-05-08 15:22 | 27.03494 | 116.34841 | 35255 ft | 492 kts | 39° |
| 2026-05-08 15:22 | 27.08155 | 116.40465 | 35253 ft | 492 kts | 39° |
| 2026-05-08 15:23 | 27.12813 | 116.46101 | 35253 ft | 492 kts | 39° |
| 2026-05-08 15:23 | 27.17467 | 116.51745 | 35274 ft | 493 kts | 39° |
| 2026-05-08 15:24 | 27.22130 | 116.57395 | 35264 ft | 493 kts | 39° |
| 2026-05-08 15:24 | 27.26867 | 116.62942 | 35263 ft | 491 kts | 38° |
| 2026-05-08 15:25 | 27.31654 | 116.68430 | 35265 ft | 492 kts | 38° |
| 2026-05-08 15:25 | 27.36423 | 116.73946 | 35254 ft | 492 kts | 38° |
| 2026-05-08 15:26 | 27.41167 | 116.79502 | 35266 ft | 492 kts | 38° |
| 2026-05-08 15:26 | 27.45906 | 116.85069 | 35258 ft | 493 kts | 38° |
| 2026-05-08 15:27 | 27.50656 | 116.90637 | 35250 ft | 493 kts | 38° |
| 2026-05-08 15:27 | 27.55417 | 116.96195 | 35247 ft | 492 kts | 37° |
| 2026-05-08 15:28 | 27.60201 | 117.01713 | 35288 ft | 493 kts | 37° |
| 2026-05-08 15:28 | 27.64996 | 117.07232 | 35273 ft | 493 kts | 37° |
| 2026-05-08 15:29 | 27.69783 | 117.12774 | 35265 ft | 493 kts | 37° |
| 2026-05-08 15:29 | 27.74560 | 117.18323 | 35249 ft | 493 kts | 37° |
| 2026-05-08 15:30 | 27.79335 | 117.23866 | 35259 ft | 492 kts | 37° |
| 2026-05-08 15:30 | 27.84112 | 117.29423 | 35288 ft | 494 kts | 37° |
| 2026-05-08 15:31 | 27.88886 | 117.35000 | 35265 ft | 493 kts | 37° |
| 2026-05-08 15:31 | 27.93624 | 117.40535 | 35242 ft | 492 kts | 36° |
| 2026-05-08 15:32 | 27.98409 | 117.46120 | 35265 ft | 496 kts | 37° |
| 2026-05-08 15:32 | 28.03204 | 117.51733 | 35306 ft | 496 kts | 37° |
| 2026-05-08 15:33 | 28.07999 | 117.57359 | 35291 ft | 497 kts | 37° |
| 2026-05-08 15:33 | 28.12803 | 117.62986 | 35285 ft | 497 kts | 37° |
| 2026-05-08 15:34 | 28.17609 | 117.68621 | 35282 ft | 497 kts | 37° |
| 2026-05-08 15:34 | 28.22408 | 117.74263 | 35284 ft | 497 kts | 37° |
| 2026-05-08 15:35 | 28.27210 | 117.79922 | 35285 ft | 498 kts | 37° |
| 2026-05-08 15:35 | 28.32010 | 117.85587 | 35288 ft | 498 kts | 37° |
| 2026-05-08 15:36 | 28.36809 | 117.91261 | 35292 ft | 498 kts | 37° |
| 2026-05-08 15:36 | 28.41608 | 117.96933 | 35292 ft | 498 kts | 37° |
| 2026-05-08 15:37 | 28.46356 | 118.02672 | 35305 ft | 500 kts | 38° |
| 2026-05-08 15:37 | 28.51031 | 118.08469 | 35301 ft | 501 kts | 39° |
| 2026-05-08 15:38 | 28.55732 | 118.14309 | 35299 ft | 501 kts | 38° |
| 2026-05-08 15:38 | 28.60447 | 118.20134 | 35298 ft | 500 kts | 38° |
| 2026-05-08 15:39 | 28.65172 | 118.25946 | 35321 ft | 500 kts | 38° |
| 2026-05-08 15:39 | 28.69897 | 118.31767 | 35313 ft | 501 kts | 38° |
| 2026-05-08 15:40 | 28.74611 | 118.37614 | 35301 ft | 501 kts | 38° |
| 2026-05-08 15:40 | 28.79325 | 118.43465 | 35299 ft | 501 kts | 38° |
| 2026-05-08 15:41 | 28.84036 | 118.49314 | 35297 ft | 501 kts | 38° |
| 2026-05-08 15:41 | 28.86383 | 118.52233 | 35120 ft | 496 kts | 39° |
| 2026-05-08 15:41 | 28.88703 | 118.55129 | 34808 ft | 494 kts | 39° |
| 2026-05-08 15:42 | 28.91013 | 118.58015 | 34374 ft | 491 kts | 39° |
| 2026-05-08 15:42 | 28.93313 | 118.60890 | 33916 ft | 489 kts | 39° |
| 2026-05-08 15:42 | 28.95597 | 118.63741 | 33426 ft | 486 kts | 39° |
| 2026-05-08 15:42 | 28.97871 | 118.66576 | 32931 ft | 483 kts | 39° |
| 2026-05-08 15:43 | 29.00132 | 118.69389 | 32468 ft | 479 kts | 40° |
| 2026-05-08 15:43 | 29.02379 | 118.72186 | 32002 ft | 476 kts | 40° |
| 2026-05-08 15:43 | 29.04605 | 118.74967 | 31573 ft | 473 kts | 41° |
| 2026-05-08 15:43 | 29.06817 | 118.77735 | 31126 ft | 470 kts | 41° |
| 2026-05-08 15:44 | 29.09017 | 118.80488 | 30687 ft | 467 kts | 42° |
| 2026-05-08 15:44 | 29.11201 | 118.83222 | 30247 ft | 465 kts | 42° |
| 2026-05-08 15:44 | 29.13374 | 118.85945 | 29734 ft | 462 kts | 42° |
| 2026-05-08 15:44 | 29.15530 | 118.88651 | 29226 ft | 459 kts | 42° |
| 2026-05-08 15:45 | 29.17669 | 118.91343 | 28735 ft | 456 kts | 43° |
| 2026-05-08 15:45 | 29.19799 | 118.94020 | 28246 ft | 454 kts | 43° |
| 2026-05-08 15:45 | 29.21912 | 118.96681 | 27942 ft | 448 kts | 43° |
| 2026-05-08 15:45 | 29.23979 | 118.99286 | 27903 ft | 435 kts | 42° |
| 2026-05-08 15:46 | 29.26003 | 119.01837 | 27836 ft | 432 kts | 43° |
| 2026-05-08 15:46 | 29.28041 | 119.04396 | 27247 ft | 436 kts | 43° |
| 2026-05-08 15:46 | 29.30077 | 119.06957 | 26871 ft | 433 kts | 43° |
| 2026-05-08 15:46 | 29.32101 | 119.09510 | 26461 ft | 432 kts | 43° |
| 2026-05-08 15:47 | 29.34117 | 119.12058 | 26049 ft | 431 kts | 43° |
| 2026-05-08 15:47 | 29.36128 | 119.14603 | 25636 ft | 431 kts | 43° |
| 2026-05-08 15:47 | 29.38110 | 119.17113 | 25208 ft | 429 kts | 43° |
| 2026-05-08 15:47 | 29.40108 | 119.19649 | 24773 ft | 429 kts | 43° |
| 2026-05-08 15:48 | 29.44114 | 119.24733 | 23893 ft | 430 kts | 43° |
| 2026-05-08 15:48 | 29.46099 | 119.27258 | 23406 ft | 421 kts | 43° |
| 2026-05-08 15:48 | 29.48030 | 119.29722 | 22943 ft | 407 kts | 43° |
| 2026-05-08 15:49 | 29.49886 | 119.32096 | 22515 ft | 393 kts | 43° |
| 2026-05-08 15:49 | 29.51684 | 119.34397 | 22101 ft | 381 kts | 43° |
| 2026-05-08 15:49 | 29.53428 | 119.36624 | 21705 ft | 369 kts | 43° |
| 2026-05-08 15:49 | 29.55137 | 119.38797 | 21314 ft | 366 kts | 43° |
| 2026-05-08 15:50 | 29.56850 | 119.40965 | 20918 ft | 366 kts | 43° |
| 2026-05-08 15:50 | 29.58561 | 119.43129 | 20506 ft | 366 kts | 41° |
| 2026-05-08 15:50 | 29.60262 | 119.45280 | 20125 ft | 362 kts | 43° |
| 2026-05-08 15:50 | 29.61955 | 119.47431 | 19724 ft | 363 kts | 43° |
| 2026-05-08 15:51 | 29.63771 | 119.49415 | 19416 ft | 358 kts | 32° |
| 2026-05-08 15:51 | 29.65822 | 119.51057 | 19331 ft | 361 kts | 29° |
| 2026-05-08 15:51 | 29.67916 | 119.52687 | 18945 ft | 367 kts | 29° |
| 2026-05-08 15:51 | 29.70074 | 119.54364 | 18208 ft | 377 kts | 29° |
| 2026-05-08 15:52 | 29.72255 | 119.56067 | 17643 ft | 379 kts | 30° |
| 2026-05-08 15:52 | 29.74425 | 119.57768 | 17225 ft | 376 kts | 30° |
| 2026-05-08 15:52 | 29.76583 | 119.59459 | 16797 ft | 374 kts | 31° |
| 2026-05-08 15:52 | 29.78727 | 119.61138 | 16384 ft | 372 kts | 31° |
| 2026-05-08 15:53 | 29.80854 | 119.62805 | 16014 ft | 368 kts | 31° |
| 2026-05-08 15:53 | 29.82967 | 119.64463 | 15597 ft | 365 kts | 31° |
| 2026-05-08 15:53 | 29.85032 | 119.66082 | 15185 ft | 361 kts | 31° |
| 2026-05-08 15:53 | 29.87222 | 119.67513 | 14511 ft | 364 kts | 25° |
| 2026-05-08 15:54 | 29.89460 | 119.68863 | 14069 ft | 360 kts | 25° |
| 2026-05-08 15:54 | 29.91641 | 119.70174 | 13927 ft | 347 kts | 25° |
| 2026-05-08 15:54 | 29.93743 | 119.71440 | 13443 ft | 337 kts | 25° |
| 2026-05-08 15:54 | 29.95800 | 119.72680 | 12763 ft | 330 kts | 25° |
| 2026-05-08 15:55 | 29.97803 | 119.73892 | 12347 ft | 316 kts | 25° |
| 2026-05-08 15:55 | 30.01619 | 119.76225 | 11625 ft | 310 kts | 29° |
| 2026-05-08 15:55 | 30.03317 | 119.77758 | 11223 ft | 312 kts | 44° |
| 2026-05-08 15:56 | 30.04619 | 119.79772 | 10823 ft | 315 kts | 59° |
| 2026-05-08 15:56 | 30.05627 | 119.82012 | 10552 ft | 311 kts | 62° |
| 2026-05-08 15:56 | 30.06603 | 119.84190 | 10286 ft | 302 kts | 62° |
| 2026-05-08 15:56 | 30.07569 | 119.86336 | 9620 ft | 300 kts | 62° |
| 2026-05-08 15:57 | 30.08528 | 119.88461 | 9032 ft | 296 kts | 62° |
| 2026-05-08 15:57 | 30.09466 | 119.90542 | 8587 ft | 288 kts | 63° |
| 2026-05-08 15:57 | 30.10389 | 119.92597 | 8254 ft | 287 kts | 63° |
| 2026-05-08 15:57 | 30.11302 | 119.94629 | 7892 ft | 284 kts | 64° |
| 2026-05-08 15:58 | 30.12209 | 119.96647 | 7526 ft | 284 kts | 64° |
| 2026-05-08 15:58 | 30.13115 | 119.98662 | 7289 ft | 279 kts | 64° |
| 2026-05-08 15:58 | 30.13992 | 120.00622 | 7180 ft | 270 kts | 64° |
| 2026-05-08 15:58 | 30.14828 | 120.02522 | 7055 ft | 261 kts | 68° |
| 2026-05-08 15:59 | 30.15127 | 120.04503 | 6934 ft | 246 kts | 101° |
| 2026-05-08 15:59 | 30.14442 | 120.06241 | 6693 ft | 239 kts | 134° |
| 2026-05-08 15:59 | 30.13068 | 120.07307 | 6341 ft | 240 kts | 152° |
| 2026-05-08 15:59 | 30.11613 | 120.08249 | 5999 ft | 239 kts | 140° |
| 2026-05-08 16:00 | 30.10704 | 120.09806 | 5679 ft | 238 kts | 104° |
| 2026-05-08 16:00 | 30.10831 | 120.11687 | 5365 ft | 241 kts | 70° |
| 2026-05-08 16:00 | 30.11574 | 120.13426 | 5064 ft | 241 kts | 65° |
| 2026-05-08 16:00 | 30.12350 | 120.15106 | 4894 ft | 234 kts | 65° |
| 2026-05-08 16:01 | 30.13102 | 120.16759 | 4616 ft | 232 kts | 65° |
| 2026-05-08 16:01 | 30.13839 | 120.18409 | 4308 ft | 230 kts | 66° |
| 2026-05-08 16:01 | 30.14568 | 120.20042 | 4005 ft | 228 kts | 66° |
| 2026-05-08 16:01 | 30.15291 | 120.21664 | 3688 ft | 224 kts | 66° |
| 2026-05-08 16:02 | 30.15982 | 120.23210 | 3412 ft | 215 kts | 66° |
| 2026-05-08 16:02 | 30.16653 | 120.24714 | 3120 ft | 206 kts | 66° |
| 2026-05-08 16:02 | 30.17286 | 120.26133 | 2891 ft | 193 kts | 67° |
| 2026-05-08 16:02 | 30.17878 | 120.27462 | 2609 ft | 178 kts | 67° |
| 2026-05-08 16:03 | 30.18423 | 120.28685 | 2370 ft | 164 kts | 67° |
| 2026-05-08 16:03 | 30.18921 | 120.29802 | 2180 ft | 151 kts | 67° |
| 2026-05-08 16:03 | 30.19387 | 120.30853 | 1974 ft | 145 kts | 68° |
| 2026-05-08 16:03 | 30.19844 | 120.31881 | 1773 ft | 143 kts | 67° |
| 2026-05-08 16:04 | 30.20298 | 120.32902 | 1582 ft | 143 kts | 67° |
| 2026-05-08 16:04 | 30.20751 | 120.33921 | 1390 ft | 142 kts | 66° |
| 2026-05-08 16:04 | 30.21198 | 120.34929 | 1194 ft | 141 kts | 66° |
| 2026-05-08 16:04 | 30.21646 | 120.35936 | 1009 ft | 141 kts | 66° |
| 2026-05-08 16:05 | 30.22093 | 120.36938 | 816 ft | 140 kts | 65° |
| 2026-05-08 16:05 | 30.22543 | 120.37934 | 630 ft | 140 kts | 64° |
| 2026-05-08 16:05 | 30.22985 | 120.38925 | 438 ft | 139 kts | 64° |
| 2026-05-08 16:05 | 30.23420 | 120.39916 | 241 ft | 137 kts | 64° |
| 2026-05-08 16:06 | 30.23854 | 120.40901 | 96 ft | 138 kts | 64° |
| 2026-05-08 16:06 | 30.24262 | 120.41835 | 32 ft | 110 kts | 62° |
| 2026-05-08 16:06 | 30.24533 | 120.42444 | 29 ft | 60 kts | 63° |
| 2026-05-08 16:06 | 30.24674 | 120.42762 | 29 ft | 40 kts | 63° |
| 2026-05-08 16:07 | 30.24721 | 120.42985 | 32 ft | 18 kts | 85° |
| 2026-05-08 16:07 | 30.24723 | 120.43109 | 33 ft | 10 kts | 90° |
| 2026-05-08 16:07 | 30.24722 | 120.43122 | 32 ft | 3 kts | 90° |
| 2026-05-08 16:07 | 30.24722 | 120.43157 | 32 ft | 6 kts | 90° |
| 2026-05-08 16:08 | 30.24721 | 120.43216 | 32 ft | 9 kts | 95° |
| 2026-05-08 16:08 | 30.24676 | 120.43264 | 31 ft | 10 kts | 156° |
| 2026-05-08 16:08 | 30.24600 | 120.43302 | 32 ft | 13 kts | 156° |
| 2026-05-08 16:08 | 30.24521 | 120.43274 | 32 ft | 15 kts | 243° |
| 2026-05-08 16:09 | 30.24470 | 120.43158 | 31 ft | 17 kts | 243° |
| 2026-05-08 16:09 | 30.24431 | 120.43071 | 31 ft | 19 kts | 243° |
| 2026-05-08 16:09 | 30.24371 | 120.42931 | 32 ft | 20 kts | 243° |
| 2026-05-08 16:09 | 30.24290 | 120.42765 | 32 ft | 17 kts | 244° |
| 2026-05-08 16:10 | 30.24253 | 120.42681 | 32 ft | 18 kts | 241° |
| 2026-05-08 16:10 | 30.24195 | 120.42551 | 32 ft | 18 kts | 243° |
| 2026-05-08 16:10 | 30.24157 | 120.42467 | 32 ft | 12 kts | 242° |
| 2026-05-08 16:10 | 30.24116 | 120.42375 | 32 ft | 14 kts | 242° |
| 2026-05-08 16:11 | 30.24067 | 120.42265 | 31 ft | 17 kts | 243° |
| 2026-05-08 16:11 | 30.24002 | 120.42183 | 31 ft | 14 kts | 178° |
| 2026-05-08 16:11 | 30.23903 | 120.42236 | 32 ft | 17 kts | 152° |
| 2026-05-08 16:11 | 30.23819 | 120.42286 | 32 ft | 9 kts | 153° |
| 2026-05-08 16:12 | 30.23766 | 120.42331 | 30 ft | 10 kts | 115° |
| 2026-05-08 16:12 | 30.23779 | 120.42388 | 32 ft | 6 kts | 66° |
| 2026-05-08 16:12 | 30.23784 | 120.42402 | 30 ft | 2 kts | 68° |
| 2026-05-08 16:12 | 30.23785 | 120.42405 | 30 ft | 0 kts | 68° |